createdAt,value
2018-09-03T00:02:27.259Z,5.00
2018-09-03T00:04:55.061Z,4.40
2018-09-03T00:07:22.867Z,6.17
2018-09-03T00:09:50.715Z,5.83
2018-09-03T00:12:18.528Z,4.17
2018-09-03T00:14:46.344Z,5.20
2018-09-03T00:17:14.147Z,6.83
2018-09-03T00:19:41.876Z,5.60
2018-09-03T00:22:09.724Z,4.60
2018-09-03T00:24:37.547Z,5.13
2018-09-03T00:27:05.307Z,6.27
2018-09-03T00:29:33.198Z,5.93
2018-09-03T00:32:06.831Z,5.90
2018-09-03T00:34:40.447Z,6.23
2018-09-03T00:37:14.019Z,6.67
2018-09-03T00:39:47.499Z,6.17
2018-09-03T00:42:21.023Z,6.17
2018-09-03T00:44:54.668Z,7.57
2018-09-03T00:47:22.512Z,5.97
2018-09-03T00:49:50.483Z,6.10
2018-09-03T00:52:18.330Z,5.63
2018-09-03T00:54:46.201Z,6.57
2018-09-03T00:57:13.927Z,5.43
2018-09-03T00:59:41.742Z,5.80
2018-09-03T01:02:09.637Z,6.17
2018-09-03T01:04:37.410Z,7.73
2018-09-03T01:07:05.340Z,6.40
2018-09-03T01:09:33.168Z,7.17
2018-09-03T01:12:01.023Z,10.63
2018-09-03T01:14:28.886Z,8.67
2018-09-03T01:16:56.670Z,7.67
2018-09-03T01:19:24.495Z,6.17
2018-09-03T01:21:52.340Z,8.40
2018-09-03T01:24:20.180Z,8.60
2018-09-03T01:26:47.988Z,5.87
2018-09-03T01:29:15.814Z,8.93
2018-09-03T01:31:43.603Z,6.57
2018-09-03T01:34:11.464Z,7.50
2018-09-03T01:36:39.349Z,9.00
2018-09-03T01:39:08.252Z,7.37
2018-09-03T01:41:36.047Z,7.13
2018-09-03T01:44:03.892Z,7.67
2018-09-03T01:46:31.741Z,7.90
2018-09-03T01:48:59.588Z,6.53
2018-09-03T01:51:27.348Z,9.47
2018-09-03T01:53:55.147Z,8.53
2018-09-03T01:56:23.000Z,8.67
2018-09-03T01:58:50.748Z,6.93
2018-09-03T02:01:18.523Z,8.73
2018-09-03T02:03:46.355Z,8.37
2018-09-03T02:06:14.147Z,6.47
2018-09-03T02:08:42.016Z,7.87
2018-09-03T02:11:09.847Z,6.90
2018-09-03T02:13:37.746Z,7.53
2018-09-03T02:16:05.470Z,7.83
2018-09-03T02:18:33.283Z,8.73
2018-09-03T02:21:01.123Z,6.27
2018-09-03T02:23:28.925Z,7.30
2018-09-03T02:25:56.787Z,8.30
2018-09-03T02:28:24.635Z,10.57
2018-09-03T02:30:52.442Z,10.63
2018-09-03T02:33:20.227Z,10.37
2018-09-03T02:35:48.054Z,7.73
2018-09-03T02:38:15.835Z,7.17
2018-09-03T02:40:43.664Z,11.97
2018-09-03T02:43:11.510Z,9.07
2018-09-03T02:45:39.321Z,8.37
2018-09-03T02:48:07.215Z,9.03
2018-09-03T02:50:35.179Z,9.87
2018-09-03T02:53:03.020Z,8.23
2018-09-03T02:55:30.787Z,11.37
2018-09-03T02:57:58.543Z,11.63
2018-09-03T03:00:27.084Z,11.50
2018-09-03T03:02:56.584Z,10.70
2018-09-03T03:05:24.851Z,10.30
2018-09-03T03:07:52.705Z,11.27
2018-09-03T03:10:20.547Z,13.77
2018-09-03T03:12:48.496Z,14.80
2018-09-03T03:15:16.355Z,12.90
2018-09-03T03:17:44.211Z,14.30
2018-09-03T03:20:12.063Z,15.30
2018-09-03T03:22:39.849Z,13.23
2018-09-03T03:25:07.703Z,13.70
2018-09-03T03:27:35.558Z,15.10
2018-09-03T03:30:03.444Z,13.73
2018-09-03T03:32:31.191Z,12.07
2018-09-03T03:34:58.998Z,14.47
2018-09-03T03:37:26.873Z,13.00
2018-09-03T03:39:54.584Z,13.37
2018-09-03T03:42:22.452Z,12.83
2018-09-03T03:44:50.267Z,10.67
2018-09-03T03:47:18.084Z,12.50
2018-09-03T03:49:45.947Z,13.77
2018-09-03T03:52:13.724Z,11.77
2018-09-03T03:54:41.543Z,14.23
2018-09-03T03:57:09.340Z,13.27
2018-09-03T03:59:37.110Z,14.17
2018-09-03T04:02:05.212Z,15.53
2018-09-03T04:04:33.051Z,14.73
2018-09-03T04:07:00.897Z,13.53
2018-09-03T04:09:28.752Z,13.70
2018-09-03T04:11:56.497Z,15.63
2018-09-03T04:14:24.325Z,13.03
2018-09-03T04:16:52.124Z,15.27
2018-09-03T04:19:19.972Z,13.97
2018-09-03T04:21:47.828Z,16.57
2018-09-03T04:24:15.576Z,14.17
2018-09-03T04:26:43.357Z,13.20
2018-09-03T04:29:11.298Z,14.13
2018-09-03T04:31:39.107Z,12.07
2018-09-03T04:34:06.885Z,13.17
2018-09-03T04:36:34.655Z,14.50
2018-09-03T04:39:03.690Z,10.53
2018-09-03T04:41:31.403Z,15.23
2018-09-03T04:43:59.275Z,13.47
2018-09-03T04:46:27.159Z,16.33
2018-09-03T04:48:54.987Z,17.03
2018-09-03T04:51:22.811Z,16.30
2018-09-03T04:53:50.597Z,15.93
2018-09-03T04:56:18.388Z,15.67
2018-09-03T04:58:46.229Z,14.60
2018-09-03T05:01:14.027Z,14.67
2018-09-03T05:03:41.924Z,15.67
2018-09-03T05:06:10.010Z,13.60
2018-09-03T05:08:37.787Z,14.30
2018-09-03T05:11:05.584Z,15.47
2018-09-03T05:13:33.418Z,13.83
2018-09-03T05:16:01.252Z,16.03
2018-09-03T05:18:29.105Z,14.97
2018-09-03T05:20:56.855Z,18.53
2018-09-03T05:23:24.664Z,18.00
2018-09-03T05:25:52.470Z,16.33
2018-09-03T05:28:20.200Z,18.43
2018-09-03T05:30:48.186Z,16.70
2018-09-03T05:33:15.982Z,20.03
2018-09-03T05:35:43.810Z,18.00
2018-09-03T05:38:11.684Z,17.43
2018-09-03T05:40:39.627Z,16.47
2018-09-03T05:43:07.509Z,16.50
2018-09-03T05:45:35.347Z,19.90
2018-09-03T05:48:04.383Z,16.87
2018-09-03T05:50:32.242Z,17.30
2018-09-03T05:53:00.067Z,18.90
2018-09-03T05:55:27.979Z,19.50
2018-09-03T05:57:55.799Z,21.07
2018-09-03T06:00:23.670Z,19.87
2018-09-03T06:02:51.531Z,22.67
2018-09-03T06:05:19.423Z,15.93
2018-09-03T06:07:47.409Z,16.43
2018-09-03T06:10:15.239Z,20.13
2018-09-03T06:12:43.374Z,20.60
2018-09-03T06:15:11.566Z,21.10
2018-09-03T06:17:39.851Z,19.97
2018-09-03T06:20:07.688Z,19.13
2018-09-03T06:22:35.667Z,16.57
2018-09-03T06:25:03.730Z,18.63
2018-09-03T06:27:31.582Z,20.13
2018-09-03T06:29:59.584Z,18.17
2018-09-03T06:32:27.463Z,20.40
2018-09-03T06:34:55.283Z,17.13
2018-09-03T06:37:23.064Z,19.50
2018-09-03T06:39:50.875Z,18.40
2018-09-03T06:42:18.727Z,17.83
2018-09-03T06:44:46.535Z,18.37
2018-09-03T06:47:14.517Z,17.43
2018-09-03T06:49:42.395Z,19.63
2018-09-03T06:52:10.232Z,18.87
2018-09-03T06:54:38.112Z,20.77
2018-09-03T06:57:06.548Z,19.63
2018-09-03T06:59:34.427Z,19.37
2018-09-03T07:02:02.291Z,18.27
2018-09-03T07:04:30.123Z,18.73
2018-09-03T07:06:58.128Z,18.10
2018-09-03T07:09:26.012Z,17.30
2018-09-03T07:11:53.793Z,17.60
2018-09-03T07:14:21.668Z,17.40
2018-09-03T07:16:49.505Z,17.57
2018-09-03T07:19:17.303Z,18.73
2018-09-03T07:21:45.137Z,20.33
2018-09-03T07:24:12.933Z,18.10
2018-09-03T07:26:40.790Z,22.63
2018-09-03T07:29:08.643Z,21.43
2018-09-03T07:31:36.521Z,21.50
2018-09-03T07:34:04.320Z,20.27
2018-09-03T07:36:32.199Z,22.20
2018-09-03T07:39:00.036Z,18.57
2018-09-03T07:41:27.888Z,18.70
2018-09-03T07:43:55.744Z,18.50
2018-09-03T07:46:23.602Z,20.47
2018-09-03T07:48:51.438Z,21.63
2018-09-03T07:51:19.263Z,18.07
2018-09-03T07:53:47.095Z,20.73
2018-09-03T07:56:14.995Z,18.83
2018-09-03T07:58:42.844Z,19.57
2018-09-03T08:01:10.694Z,18.70
2018-09-03T08:03:38.476Z,20.23
2018-09-03T08:06:06.361Z,16.67
2018-09-03T08:08:34.193Z,21.97
2018-09-03T08:11:01.999Z,19.70
2018-09-03T08:13:35.832Z,16.50
2018-09-03T08:16:04.243Z,17.77
2018-09-03T08:18:32.037Z,18.87
2018-09-03T08:20:59.844Z,18.47
2018-09-03T08:23:27.707Z,18.70
2018-09-03T08:25:55.512Z,22.33
2018-09-03T08:28:23.420Z,18.27
2018-09-03T08:30:51.216Z,18.00
2018-09-03T08:33:18.992Z,16.50
2018-09-03T08:35:46.864Z,20.87
2018-09-03T08:38:14.644Z,19.70
2018-09-03T08:40:42.527Z,20.17
2018-09-03T08:43:10.360Z,19.80
2018-09-03T08:45:38.224Z,20.57
2018-09-03T08:48:06.029Z,20.70
2018-09-03T08:50:33.872Z,20.67
2018-09-03T08:53:01.715Z,22.30
2018-09-03T08:55:29.524Z,22.93
2018-09-03T08:57:57.386Z,19.93
2018-09-03T09:00:25.192Z,23.53
2018-09-03T09:02:53.060Z,18.30
2018-09-03T09:05:20.885Z,21.00
2018-09-03T09:07:48.697Z,20.83
2018-09-03T09:10:16.512Z,20.53
2018-09-03T09:12:44.335Z,24.90
2018-09-03T09:15:12.204Z,25.50
2018-09-03T09:17:40.453Z,20.33
2018-09-03T09:20:08.537Z,17.83
2018-09-03T09:22:36.406Z,19.33
2018-09-03T09:25:04.470Z,19.80
2018-09-03T09:27:32.314Z,18.77
2018-09-03T09:30:00.131Z,19.37
2018-09-03T09:32:27.928Z,18.20
2018-09-03T09:34:55.723Z,17.93
2018-09-03T09:37:23.507Z,17.97
2018-09-03T09:39:51.312Z,17.00
2018-09-03T09:42:19.107Z,17.13
2018-09-03T09:44:46.968Z,14.83
2018-09-03T09:47:14.861Z,16.77
2018-09-03T09:49:43.496Z,14.90
2018-09-03T09:52:11.307Z,15.40
2018-09-03T09:54:39.291Z,14.93
2018-09-03T09:57:07.051Z,15.80
2018-09-03T09:59:34.831Z,18.30
2018-09-03T10:02:03.343Z,15.03
2018-09-03T10:04:31.193Z,16.03
2018-09-03T10:06:58.999Z,15.23
2018-09-03T10:09:26.803Z,17.17
2018-09-03T10:11:54.632Z,14.57
2018-09-03T10:14:22.457Z,14.83
2018-09-03T10:16:50.323Z,16.10
2018-09-03T10:19:18.103Z,13.33
2018-09-03T10:21:45.875Z,15.47
2018-09-03T10:24:13.711Z,14.90
2018-09-03T10:26:41.844Z,16.97
2018-09-03T10:29:09.632Z,16.77
2018-09-03T10:31:37.457Z,16.17
2018-09-03T10:34:05.561Z,15.30
2018-09-03T10:36:33.415Z,17.03
2018-09-03T10:39:01.243Z,15.60
2018-09-03T10:41:29.040Z,19.53
2018-09-03T10:43:56.852Z,16.20
2018-09-03T10:46:24.751Z,20.53
2018-09-03T10:48:52.570Z,17.30
2018-09-03T10:51:20.351Z,18.10
2018-09-03T10:53:48.128Z,16.50
2018-09-03T10:56:15.976Z,17.43
2018-09-03T10:58:43.737Z,16.10
2018-09-03T11:01:11.553Z,18.57
2018-09-03T11:03:39.323Z,18.07
2018-09-03T11:06:07.139Z,18.10
2018-09-03T11:08:35.104Z,16.07
2018-09-03T11:11:02.899Z,17.80
2018-09-03T11:13:30.850Z,20.13
2018-09-03T11:15:58.733Z,15.60
2018-09-03T11:18:27.928Z,14.77
2018-09-03T11:20:55.706Z,15.60
2018-09-03T11:23:23.557Z,16.57
2018-09-03T11:25:51.376Z,16.23
2018-09-03T11:28:19.168Z,16.33
2018-09-03T11:30:46.990Z,15.80
2018-09-03T11:33:14.842Z,16.03
2018-09-03T11:35:42.926Z,17.20
2018-09-03T11:38:10.695Z,15.03
2018-09-03T11:40:38.485Z,17.47
2018-09-03T11:43:06.388Z,16.90
2018-09-03T11:45:34.171Z,17.57
2018-09-03T11:48:02.080Z,21.03
2018-09-03T11:50:29.911Z,20.00
2018-09-03T11:52:57.710Z,19.67
2018-09-03T11:55:25.461Z,18.57
2018-09-03T11:57:53.277Z,20.77
2018-09-03T12:00:25.194Z,18.97
2018-09-03T12:02:52.987Z,18.00
2018-09-03T12:05:20.776Z,19.60
2018-09-03T12:07:48.687Z,18.63
2018-09-03T12:10:16.438Z,19.77
2018-09-03T12:12:44.224Z,16.50
2018-09-03T12:16:17.326Z,20.43
2018-09-03T12:18:45.665Z,19.90
2018-09-03T12:21:14.202Z,19.80
2018-09-03T12:23:42.691Z,19.10
2018-09-03T12:26:10.672Z,17.63
2018-09-03T12:28:38.497Z,16.77
2018-09-03T12:31:06.760Z,17.83
2018-09-03T12:33:34.515Z,21.03
2018-09-03T12:36:02.784Z,17.43
2018-09-03T12:38:30.739Z,16.60
2018-09-03T12:40:58.568Z,19.13
2018-09-03T12:43:26.561Z,20.17
2018-09-03T12:46:00.740Z,17.13
2018-09-03T12:48:29.715Z,18.93
2018-09-03T12:50:57.848Z,17.50
2018-09-03T12:53:25.602Z,16.80
2018-09-03T12:55:53.435Z,15.97
2018-09-03T12:58:21.269Z,15.37
2018-09-03T13:00:49.134Z,19.00
2018-09-03T13:03:16.954Z,18.93
2018-09-03T13:05:44.748Z,19.17
2018-09-03T13:08:12.528Z,17.73
2018-09-03T13:10:40.343Z,20.20
2018-09-03T13:13:08.191Z,18.60
2018-09-03T13:15:35.955Z,19.43
2018-09-03T13:18:10.408Z,17.70
2018-09-03T13:20:38.181Z,14.63
2018-09-03T13:23:06.003Z,17.47
2018-09-03T13:25:33.795Z,16.30
2018-09-03T13:28:01.613Z,17.57
2018-09-03T13:30:29.452Z,19.80
2018-09-03T13:32:57.271Z,17.70
2018-09-03T13:35:25.414Z,18.60
2018-09-03T13:37:53.251Z,20.00
2018-09-03T13:40:21.071Z,15.50
2018-09-03T13:42:48.831Z,17.43
2018-09-03T13:45:16.594Z,16.07
2018-09-03T13:47:44.445Z,20.87
2018-09-03T13:50:12.167Z,16.43
2018-09-03T13:52:39.991Z,16.83
2018-09-03T13:55:07.867Z,14.83
2018-09-03T13:57:35.604Z,14.43
2018-09-03T14:00:03.720Z,15.40
2018-09-03T14:02:31.590Z,15.40
2018-09-03T14:04:59.462Z,13.63
2018-09-03T14:07:27.307Z,12.30
2018-09-03T14:09:55.153Z,15.20
2018-09-03T14:12:23.014Z,13.50
2018-09-03T14:14:50.755Z,15.37
2018-09-03T14:17:18.623Z,11.43
2018-09-03T14:19:46.448Z,12.73
2018-09-03T14:22:14.372Z,13.70
2018-09-03T14:24:42.072Z,13.17
2018-09-03T14:27:09.887Z,13.87
2018-09-03T14:29:37.758Z,17.43
2018-09-03T14:32:05.645Z,12.50
2018-09-03T14:34:33.385Z,13.33
2018-09-03T14:37:01.219Z,11.47
2018-09-03T14:39:28.915Z,11.40
2018-09-03T14:41:56.775Z,10.03
2018-09-03T14:44:24.588Z,12.30
2018-09-03T14:46:52.359Z,11.67
2018-09-03T14:49:20.201Z,12.50
2018-09-03T14:51:48.007Z,12.33
2018-09-03T14:54:15.785Z,15.77
2018-09-03T14:56:43.689Z,11.30
2018-09-03T14:59:11.529Z,14.00
2018-09-03T15:01:39.320Z,12.63
2018-09-03T15:04:07.216Z,12.03
2018-09-03T15:06:35.008Z,11.63
2018-09-03T15:09:04.471Z,10.93
2018-09-03T15:11:32.195Z,11.30
2018-09-03T15:14:00.496Z,10.40
2018-09-03T15:16:30.625Z,11.93
2018-09-03T15:18:59.283Z,12.50
2018-09-03T15:21:27.127Z,9.53
2018-09-03T15:23:54.959Z,11.50
2018-09-03T15:26:22.777Z,10.17
2018-09-03T15:28:50.581Z,10.13
2018-09-03T15:31:18.474Z,10.33
2018-09-03T15:33:46.358Z,10.20
2018-09-03T15:36:14.203Z,9.50
2018-09-03T15:38:42.064Z,10.57
2018-09-03T15:41:09.920Z,10.83
2018-09-03T15:43:37.755Z,9.00
2018-09-03T15:46:06.715Z,12.13
2018-09-03T15:48:34.625Z,9.97
2018-09-03T15:51:02.776Z,11.00
2018-09-03T15:53:30.632Z,10.97
2018-09-03T15:55:59.921Z,11.13
2018-09-03T15:58:27.719Z,10.20
2018-09-03T16:00:55.619Z,13.63
2018-09-03T16:03:23.463Z,12.43
2018-09-03T16:05:51.258Z,10.63
2018-09-03T16:08:19.125Z,12.40
2018-09-03T16:10:46.887Z,12.43
2018-09-03T16:13:14.668Z,10.67
2018-09-03T16:15:42.496Z,10.97
2018-09-03T16:18:10.298Z,11.33
2018-09-03T16:20:38.135Z,12.10
2018-09-03T16:23:06.443Z,9.97
2018-09-03T16:25:43.127Z,11.53
2018-09-03T16:28:11.272Z,10.30
2018-09-03T16:30:39.048Z,9.80
2018-09-03T16:33:06.860Z,10.10
2018-09-03T16:35:34.691Z,10.03
2018-09-03T16:38:02.525Z,12.87
2018-09-03T16:40:30.293Z,12.23
2018-09-03T16:42:58.085Z,9.87
2018-09-03T16:45:25.915Z,10.53
2018-09-03T16:47:53.727Z,11.43
2018-09-03T16:50:21.607Z,9.20
2018-09-03T16:52:50.227Z,9.30
2018-09-03T16:55:18.885Z,9.50
2018-09-03T16:57:46.678Z,8.83
2018-09-03T17:00:15.193Z,9.70
2018-09-03T17:02:43.428Z,10.20
2018-09-03T17:05:12.461Z,10.37
2018-09-03T17:07:41.313Z,9.03
2018-09-03T17:10:09.295Z,9.63
2018-09-03T17:12:38.294Z,7.97
2018-09-03T17:15:06.290Z,9.47
2018-09-03T17:17:34.127Z,11.40
2018-09-03T17:20:02.584Z,8.87
2018-09-03T17:22:30.527Z,11.97
2018-09-03T17:24:59.267Z,9.83
2018-09-03T17:27:27.544Z,8.83
2018-09-03T17:29:56.616Z,11.30
2018-09-03T17:32:24.647Z,10.10
2018-09-03T17:34:52.911Z,9.30
2018-09-03T17:37:21.307Z,10.00
2018-09-03T17:39:50.279Z,11.57
2018-09-03T17:42:18.735Z,9.83
2018-09-03T17:44:47.124Z,10.87
2018-09-03T17:47:15.762Z,10.13
2018-09-03T17:49:44.710Z,10.37
2018-09-03T17:52:12.624Z,12.47
2018-09-03T17:54:40.383Z,9.80
2018-09-03T17:57:08.182Z,11.57
2018-09-03T17:59:35.954Z,8.97
2018-09-03T18:02:03.791Z,8.43
2018-09-03T18:04:31.583Z,10.30
2018-09-03T18:06:59.331Z,10.23
2018-09-03T18:09:27.139Z,10.10
2018-09-03T18:11:55.000Z,11.93
2018-09-03T18:14:22.874Z,11.20
2018-09-03T18:16:50.639Z,9.30
2018-09-03T18:19:18.632Z,8.77
2018-09-03T18:21:46.452Z,11.87
2018-09-03T18:24:14.224Z,9.53
2018-09-03T18:26:42.139Z,9.63
2018-09-03T18:29:09.976Z,10.97
2018-09-03T18:31:37.836Z,9.93
2018-09-03T18:34:07.554Z,12.20
2018-09-03T18:36:35.392Z,11.07
2018-09-03T18:39:04.284Z,8.77
2018-09-03T18:41:32.046Z,10.93
2018-09-03T18:43:59.846Z,10.33
2018-09-03T18:46:27.649Z,15.27
2018-09-03T18:48:55.445Z,14.60
2018-09-03T18:51:23.209Z,10.20
2018-09-03T18:53:51.002Z,10.90
2018-09-03T18:56:18.988Z,12.83
2018-09-03T18:58:46.838Z,14.23
2018-09-03T19:01:14.912Z,14.13
2018-09-03T19:03:42.691Z,16.27
2018-09-03T19:06:11.284Z,15.40
2018-09-03T19:08:40.383Z,13.57
2018-09-03T19:11:08.212Z,14.57
2018-09-03T19:13:36.248Z,16.80
2018-09-03T19:16:04.461Z,15.10
2018-09-03T19:18:32.963Z,18.43
2018-09-03T19:21:01.012Z,16.83
2018-09-03T19:23:36.612Z,15.53
2018-09-03T19:26:04.557Z,18.20
2018-09-03T19:28:32.454Z,18.73
2018-09-03T19:31:09.489Z,17.87
2018-09-03T19:33:37.559Z,18.93
2018-09-03T19:36:05.251Z,15.77
2018-09-03T19:38:33.959Z,17.77
2018-09-03T19:41:04.727Z,16.07
2018-09-03T19:43:36.590Z,19.73
2018-09-03T19:46:07.624Z,21.50
2018-09-03T19:48:36.170Z,21.77
2018-09-03T19:51:04.625Z,18.50
2018-09-03T19:53:32.425Z,18.57
2018-09-03T19:56:00.264Z,17.37
2018-09-03T19:58:28.204Z,23.13
2018-09-03T20:00:56.016Z,23.47
2018-09-03T20:03:23.855Z,20.63
2018-09-03T20:05:51.840Z,22.23
2018-09-03T20:08:21.366Z,21.70
2018-09-03T20:10:49.112Z,28.37
2018-09-03T20:13:17.110Z,22.47
2018-09-03T20:15:44.915Z,22.00
2018-09-03T20:18:12.747Z,22.33
2018-09-03T20:20:40.641Z,23.00
2018-09-03T20:23:08.443Z,25.40
2018-09-03T20:25:36.256Z,30.93
2018-09-03T20:28:04.163Z,23.27
2018-09-03T20:30:32.525Z,27.50
2018-09-03T20:33:06.263Z,20.33
2018-09-03T20:35:35.508Z,27.83
2018-09-03T20:38:04.211Z,33.40
2018-09-03T20:40:32.062Z,33.27
2018-09-03T20:43:06.795Z,36.27
2018-09-03T20:45:34.771Z,34.83
2018-09-03T20:48:02.695Z,36.63
2018-09-03T20:50:30.509Z,34.57
2018-09-03T20:52:58.328Z,35.30
2018-09-03T20:55:26.213Z,32.93
2018-09-03T20:57:54.025Z,33.33
2018-09-03T21:00:21.784Z,40.13
2018-09-03T21:02:49.621Z,37.73
2018-09-03T21:05:17.561Z,38.30
2018-09-03T21:07:45.362Z,39.33
2018-09-03T21:10:13.613Z,38.73
2018-09-03T21:12:42.811Z,36.53
2018-09-03T21:15:10.579Z,42.07
2018-09-03T21:17:38.412Z,39.60
2018-09-03T21:20:06.425Z,38.23
2018-09-03T21:22:34.324Z,38.27
2018-09-03T21:25:02.125Z,36.37
2018-09-03T21:27:29.926Z,35.33
2018-09-03T21:30:00.048Z,38.77
2018-09-03T21:32:27.967Z,38.63
2018-09-03T21:34:55.923Z,34.83
2018-09-03T21:37:23.859Z,28.57
2018-09-03T21:39:51.650Z,39.30
2018-09-03T21:42:19.491Z,31.20
2018-09-03T21:44:47.324Z,24.60
2018-09-03T21:47:15.221Z,37.13
2018-09-03T21:49:43.060Z,42.10
2018-09-03T21:52:10.858Z,33.27
2018-09-03T21:54:38.715Z,28.43
2018-09-03T21:57:06.678Z,40.77
2018-09-03T21:59:34.423Z,31.70
2018-09-03T22:02:02.579Z,43.53
2018-09-03T22:04:30.384Z,41.73
2018-09-03T22:06:58.219Z,38.33
2018-09-03T22:09:26.088Z,42.67
2018-09-03T22:11:53.943Z,41.80
2018-09-03T22:14:21.845Z,41.60
2018-09-03T22:16:50.664Z,42.80
2018-09-03T22:19:18.474Z,41.03
2018-09-03T22:21:46.277Z,41.63
2018-09-03T22:24:14.205Z,45.00
2018-09-03T22:26:42.256Z,41.73
2018-09-03T22:29:10.036Z,42.50
2018-09-03T22:31:37.835Z,27.97
2018-09-03T22:34:05.644Z,41.03
2018-09-03T22:36:33.575Z,42.60
2018-09-03T22:39:01.364Z,48.23
2018-09-03T22:41:29.147Z,43.23
2018-09-03T22:43:57.020Z,43.73
2018-09-03T22:46:24.864Z,41.93
2018-09-03T22:48:52.705Z,44.80
2018-09-03T22:51:20.503Z,48.00
2018-09-03T22:53:48.226Z,45.97
2018-09-03T22:56:15.999Z,43.03
2018-09-03T22:58:43.786Z,46.43
2018-09-03T23:01:11.559Z,35.43
2018-09-03T23:03:39.708Z,43.63
2018-09-03T23:06:07.590Z,45.70
2018-09-03T23:08:35.547Z,45.47
2018-09-03T23:11:03.384Z,36.57
2018-09-03T23:13:31.182Z,49.73
2018-09-03T23:15:58.980Z,29.80
2018-09-03T23:18:26.866Z,46.80
2018-09-03T23:20:54.741Z,49.60
2018-09-03T23:23:22.560Z,46.40
2018-09-03T23:25:50.440Z,50.83
2018-09-03T23:28:18.236Z,51.03
2018-09-03T23:30:46.032Z,54.30
2018-09-03T23:33:13.903Z,46.23
2018-09-03T23:35:41.787Z,47.97
2018-09-03T23:38:09.638Z,47.97
2018-09-03T23:40:37.429Z,41.20
2018-09-03T23:43:05.315Z,48.23
2018-09-03T23:45:33.151Z,50.53
2018-09-03T23:48:01.003Z,49.47
2018-09-03T23:50:28.896Z,49.73
2018-09-03T23:52:57.075Z,50.63
2018-09-03T23:55:24.940Z,50.00
2018-09-03T23:57:52.828Z,49.60
